sensor_id;sensor_type;location;lat;lon;timestamp;temperature;humidity
56268;DHT22;42175;46.930;9.532;2022-12-18T00:00:44;22.40;38.30
56268;DHT22;42175;46.930;9.532;2022-12-18T00:03:13;22.40;38.30
56268;DHT22;42175;46.930;9.532;2022-12-18T00:05:47;22.40;38.30
56268;DHT22;42175;46.930;9.532;2022-12-18T00:08:13;22.40;38.30
56268;DHT22;42175;46.930;9.532;2022-12-18T00:10:38;22.40;38.20
56268;DHT22;42175;46.930;9.532;2022-12-18T00:13:04;22.40;38.20
56268;DHT22;42175;46.930;9.532;2022-12-18T00:15:30;22.40;38.20
56268;DHT22;42175;46.930;9.532;2022-12-18T00:17:55;22.40;38.10
56268;DHT22;42175;46.930;9.532;2022-12-18T00:20:21;22.40;38.10
56268;DHT22;42175;46.930;9.532;2022-12-18T00:22:51;22.40;38.00
56268;DHT22;42175;46.930;9.532;2022-12-18T00:25:17;22.40;38.10
56268;DHT22;42175;46.930;9.532;2022-12-18T00:27:43;22.40;38.00
56268;DHT22;42175;46.930;9.532;2022-12-18T00:30:09;22.40;38.00
56268;DHT22;42175;46.930;9.532;2022-12-18T00:32:35;22.40;38.00
56268;DHT22;42175;46.930;9.532;2022-12-18T00:35:01;22.40;37.90
56268;DHT22;42175;46.930;9.532;2022-12-18T00:37:26;22.40;37.90
56268;DHT22;42175;46.930;9.532;2022-12-18T00:39:52;22.40;37.80
56268;DHT22;42175;46.930;9.532;2022-12-18T00:42:18;22.40;37.90
56268;DHT22;42175;46.930;9.532;2022-12-18T00:45:02;22.40;37.90
56268;DHT22;42175;46.930;9.532;2022-12-18T00:47:28;22.40;37.70
56268;DHT22;42175;46.930;9.532;2022-12-18T00:49:53;22.40;37.90
56268;DHT22;42175;46.930;9.532;2022-12-18T00:52:19;22.40;38.00
56268;DHT22;42175;46.930;9.532;2022-12-18T00:54:45;22.40;37.80
56268;DHT22;42175;46.930;9.532;2022-12-18T00:57:11;22.40;37.80
56268;DHT22;42175;46.930;9.532;2022-12-18T00:59:36;22.40;37.70
56268;DHT22;42175;46.930;9.532;2022-12-18T01:02:02;22.40;37.70
56268;DHT22;42175;46.930;9.532;2022-12-18T01:04:27;22.40;37.60
56268;DHT22;42175;46.930;9.532;2022-12-18T01:06:53;22.40;37.50
56268;DHT22;42175;46.930;9.532;2022-12-18T01:09:19;22.40;37.60
56268;DHT22;42175;46.930;9.532;2022-12-18T01:11:45;22.40;37.70
56268;DHT22;42175;46.930;9.532;2022-12-18T01:14:10;22.40;37.60
56268;DHT22;42175;46.930;9.532;2022-12-18T01:16:36;22.40;37.40
56268;DHT22;42175;46.930;9.532;2022-12-18T01:19:02;22.40;37.50
56268;DHT22;42175;46.930;9.532;2022-12-18T01:21:28;22.40;37.50
56268;DHT22;42175;46.930;9.532;2022-12-18T01:23:55;22.40;37.60
56268;DHT22;42175;46.930;9.532;2022-12-18T01:26:21;22.40;38.00
56268;DHT22;42175;46.930;9.532;2022-12-18T01:28:47;22.40;37.40
56268;DHT22;42175;46.930;9.532;2022-12-18T01:31:19;22.40;37.40
56268;DHT22;42175;46.930;9.532;2022-12-18T01:33:45;22.40;37.40
56268;DHT22;42175;46.930;9.532;2022-12-18T01:36:23;22.40;37.00
56268;DHT22;42175;46.930;9.532;2022-12-18T01:38:49;22.40;37.30
56268;DHT22;42175;46.930;9.532;2022-12-18T01:41:18;22.40;37.50
56268;DHT22;42175;46.930;9.532;2022-12-18T01:43:55;22.40;37.50
56268;DHT22;42175;46.930;9.532;2022-12-18T01:46:24;22.30;37.40
56268;DHT22;42175;46.930;9.532;2022-12-18T01:48:59;22.40;37.50
56268;DHT22;42175;46.930;9.532;2022-12-18T01:51:27;22.30;37.30
56268;DHT22;42175;46.930;9.532;2022-12-18T01:53:53;22.40;37.40
56268;DHT22;42175;46.930;9.532;2022-12-18T01:56:19;22.30;37.30
56268;DHT22;42175;46.930;9.532;2022-12-18T01:58:54;22.40;37.30
56268;DHT22;42175;46.930;9.532;2022-12-18T02:01:25;22.40;37.50
56268;DHT22;42175;46.930;9.532;2022-12-18T02:03:51;22.40;37.30
56268;DHT22;42175;46.930;9.532;2022-12-18T02:06:27;22.40;37.30
56268;DHT22;42175;46.930;9.532;2022-12-18T02:11:53;22.30;37.20
56268;DHT22;42175;46.930;9.532;2022-12-18T02:16:59;22.30;37.30
56268;DHT22;42175;46.930;9.532;2022-12-18T02:22:35;22.30;37.10
56268;DHT22;42175;46.930;9.532;2022-12-18T02:25:13;22.30;37.00
56268;DHT22;42175;46.930;9.532;2022-12-18T02:27:42;22.30;37.10
56268;DHT22;42175;46.930;9.532;2022-12-18T02:30:11;22.30;37.20
56268;DHT22;42175;46.930;9.532;2022-12-18T02:32:42;22.30;37.10
56268;DHT22;42175;46.930;9.532;2022-12-18T02:35:17;22.30;37.20
56268;DHT22;42175;46.930;9.532;2022-12-18T02:37:45;22.30;37.10
56268;DHT22;42175;46.930;9.532;2022-12-18T02:40:13;22.30;37.20
56268;DHT22;42175;46.930;9.532;2022-12-18T02:42:40;22.30;37.10
56268;DHT22;42175;46.930;9.532;2022-12-18T02:45:06;22.30;37.00
56268;DHT22;42175;46.930;9.532;2022-12-18T02:47:34;22.30;37.10
56268;DHT22;42175;46.930;9.532;2022-12-18T02:52:39;22.30;37.00
56268;DHT22;42175;46.930;9.532;2022-12-18T02:57:56;22.30;37.10
56268;DHT22;42175;46.930;9.532;2022-12-18T03:03:16;22.30;37.00
56268;DHT22;42175;46.930;9.532;2022-12-18T03:06:11;22.30;36.90
56268;DHT22;42175;46.930;9.532;2022-12-18T03:08:46;22.30;37.00
56268;DHT22;42175;46.930;9.532;2022-12-18T03:11:14;22.30;36.90
56268;DHT22;42175;46.930;9.532;2022-12-18T03:16:14;22.30;36.90
56268;DHT22;42175;46.930;9.532;2022-12-18T03:18:51;22.30;36.90
56268;DHT22;42175;46.930;9.532;2022-12-18T03:21:31;22.30;36.70
56268;DHT22;42175;46.930;9.532;2022-12-18T03:23:59;22.30;37.00
56268;DHT22;42175;46.930;9.532;2022-12-18T03:26:28;22.30;36.90
56268;DHT22;42175;46.930;9.532;2022-12-18T03:28:58;22.30;36.90
56268;DHT22;42175;46.930;9.532;2022-12-18T03:31:26;22.30;36.90
56268;DHT22;42175;46.930;9.532;2022-12-18T03:33:56;22.30;36.80
56268;DHT22;42175;46.930;9.532;2022-12-18T03:36:23;22.30;36.70
56268;DHT22;42175;46.930;9.532;2022-12-18T03:38:50;22.30;36.90
56268;DHT22;42175;46.930;9.532;2022-12-18T03:44:13;22.30;36.90
56268;DHT22;42175;46.930;9.532;2022-12-18T03:49:11;22.30;36.80
56268;DHT22;42175;46.930;9.532;2022-12-18T03:51:56;22.30;36.80
56268;DHT22;42175;46.930;9.532;2022-12-18T03:54:24;22.30;36.90
56268;DHT22;42175;46.930;9.532;2022-12-18T03:56:58;22.30;36.80
56268;DHT22;42175;46.930;9.532;2022-12-18T03:59:26;22.30;36.90
56268;DHT22;42175;46.930;9.532;2022-12-18T04:01:55;22.30;36.80
56268;DHT22;42175;46.930;9.532;2022-12-18T04:04:24;22.30;36.80
56268;DHT22;42175;46.930;9.532;2022-12-18T04:06:52;22.30;36.80
56268;DHT22;42175;46.930;9.532;2022-12-18T04:09:18;22.30;36.60
56268;DHT22;42175;46.930;9.532;2022-12-18T04:11:46;22.30;36.70
56268;DHT22;42175;46.930;9.532;2022-12-18T04:14:14;22.30;36.80
56268;DHT22;42175;46.930;9.532;2022-12-18T04:16:39;22.30;36.80
56268;DHT22;42175;46.930;9.532;2022-12-18T04:19:05;22.30;36.70
56268;DHT22;42175;46.930;9.532;2022-12-18T04:21:31;22.30;36.60
56268;DHT22;42175;46.930;9.532;2022-12-18T04:23:57;22.30;36.80
56268;DHT22;42175;46.930;9.532;2022-12-18T04:26:22;22.30;36.80
56268;DHT22;42175;46.930;9.532;2022-12-18T04:28:48;22.30;36.80
56268;DHT22;42175;46.930;9.532;2022-12-18T04:31:14;22.30;36.70
56268;DHT22;42175;46.930;9.532;2022-12-18T04:33:39;22.30;36.80
56268;DHT22;42175;46.930;9.532;2022-12-18T04:36:05;22.30;36.70
56268;DHT22;42175;46.930;9.532;2022-12-18T04:38:31;22.30;36.60
56268;DHT22;42175;46.930;9.532;2022-12-18T04:40:57;22.30;36.50
56268;DHT22;42175;46.930;9.532;2022-12-18T04:43:22;22.30;36.70
56268;DHT22;42175;46.930;9.532;2022-12-18T04:45:48;22.30;36.60
56268;DHT22;42175;46.930;9.532;2022-12-18T04:48:14;22.30;36.60
56268;DHT22;42175;46.930;9.532;2022-12-18T04:50:40;22.30;36.60
56268;DHT22;42175;46.930;9.532;2022-12-18T04:53:05;22.30;36.70
56268;DHT22;42175;46.930;9.532;2022-12-18T04:55:31;22.30;36.50
56268;DHT22;42175;46.930;9.532;2022-12-18T04:57:57;22.30;36.60
56268;DHT22;42175;46.930;9.532;2022-12-18T05:00:22;22.30;36.50
56268;DHT22;42175;46.930;9.532;2022-12-18T05:02:48;22.30;36.50
56268;DHT22;42175;46.930;9.532;2022-12-18T05:05:14;22.30;36.60
56268;DHT22;42175;46.930;9.532;2022-12-18T05:07:39;22.30;36.60
56268;DHT22;42175;46.930;9.532;2022-12-18T05:10:08;22.30;36.50
56268;DHT22;42175;46.930;9.532;2022-12-18T05:12:34;22.30;36.50
56268;DHT22;42175;46.930;9.532;2022-12-18T05:15:19;22.30;36.50
56268;DHT22;42175;46.930;9.532;2022-12-18T05:17:45;22.30;36.40
56268;DHT22;42175;46.930;9.532;2022-12-18T05:20:10;22.30;36.50
56268;DHT22;42175;46.930;9.532;2022-12-18T05:22:37;22.30;36.30
56268;DHT22;42175;46.930;9.532;2022-12-18T05:25:02;22.30;36.40
56268;DHT22;42175;46.930;9.532;2022-12-18T05:27:28;22.30;36.30
56268;DHT22;42175;46.930;9.532;2022-12-18T05:29:54;22.30;36.50
56268;DHT22;42175;46.930;9.532;2022-12-18T05:32:19;22.30;36.30
56268;DHT22;42175;46.930;9.532;2022-12-18T05:34:45;22.30;36.30
56268;DHT22;42175;46.930;9.532;2022-12-18T05:37:11;22.30;36.30
56268;DHT22;42175;46.930;9.532;2022-12-18T05:39:36;22.30;36.30
56268;DHT22;42175;46.930;9.532;2022-12-18T05:42:02;22.30;36.30
56268;DHT22;42175;46.930;9.532;2022-12-18T05:44:28;22.30;36.30
56268;DHT22;42175;46.930;9.532;2022-12-18T05:46:54;22.30;36.20
56268;DHT22;42175;46.930;9.532;2022-12-18T05:49:19;22.30;36.30
56268;DHT22;42175;46.930;9.532;2022-12-18T05:51:45;22.30;36.30
56268;DHT22;42175;46.930;9.532;2022-12-18T05:54:11;22.30;36.30
56268;DHT22;42175;46.930;9.532;2022-12-18T05:56:37;22.30;36.20
56268;DHT22;42175;46.930;9.532;2022-12-18T05:59:02;22.30;36.30
56268;DHT22;42175;46.930;9.532;2022-12-18T06:01:28;22.30;36.20
56268;DHT22;42175;46.930;9.532;2022-12-18T06:03:55;22.30;36.30
56268;DHT22;42175;46.930;9.532;2022-12-18T06:06:23;22.30;36.20
56268;DHT22;42175;46.930;9.532;2022-12-18T06:08:51;22.30;36.30
56268;DHT22;42175;46.930;9.532;2022-12-18T06:11:19;22.30;36.10
56268;DHT22;42175;46.930;9.532;2022-12-18T06:13:46;22.30;36.30
56268;DHT22;42175;46.930;9.532;2022-12-18T06:16:14;22.30;36.20
56268;DHT22;42175;46.930;9.532;2022-12-18T06:18:40;22.30;36.20
56268;DHT22;42175;46.930;9.532;2022-12-18T06:21:06;22.20;36.10
56268;DHT22;42175;46.930;9.532;2022-12-18T06:23:32;22.30;36.10
56268;DHT22;42175;46.930;9.532;2022-12-18T06:25:57;22.30;36.20
56268;DHT22;42175;46.930;9.532;2022-12-18T06:28:23;22.30;36.20
56268;DHT22;42175;46.930;9.532;2022-12-18T06:30:50;22.30;36.10
56268;DHT22;42175;46.930;9.532;2022-12-18T06:33:16;22.30;36.10
56268;DHT22;42175;46.930;9.532;2022-12-18T06:35:42;22.30;36.20
56268;DHT22;42175;46.930;9.532;2022-12-18T06:38:08;22.30;36.10
56268;DHT22;42175;46.930;9.532;2022-12-18T06:40:34;22.20;36.00
56268;DHT22;42175;46.930;9.532;2022-12-18T06:42:59;22.30;36.10
56268;DHT22;42175;46.930;9.532;2022-12-18T06:45:25;22.30;36.10
56268;DHT22;42175;46.930;9.532;2022-12-18T06:47:51;22.30;36.10
56268;DHT22;42175;46.930;9.532;2022-12-18T06:50:17;22.30;36.10
56268;DHT22;42175;46.930;9.532;2022-12-18T06:52:42;22.30;36.70
56268;DHT22;42175;46.930;9.532;2022-12-18T06:55:10;22.30;36.10
56268;DHT22;42175;46.930;9.532;2022-12-18T06:57:37;22.30;36.10
56268;DHT22;42175;46.930;9.532;2022-12-18T07:00:05;22.00;29.40
56268;DHT22;42175;46.930;9.532;2022-12-18T07:02:31;21.20;28.90
56268;DHT22;42175;46.930;9.532;2022-12-18T07:04:57;21.10;30.80
56268;DHT22;42175;46.930;9.532;2022-12-18T07:07:22;21.30;32.90
56268;DHT22;42175;46.930;9.532;2022-12-18T07:09:50;21.40;34.00
56268;DHT22;42175;46.930;9.532;2022-12-18T07:12:16;21.50;34.40
56268;DHT22;42175;46.930;9.532;2022-12-18T07:14:41;21.60;34.60
56268;DHT22;42175;46.930;9.532;2022-12-18T07:17:07;21.70;35.60
56268;DHT22;42175;46.930;9.532;2022-12-18T07:19:33;21.70;35.70
56268;DHT22;42175;46.930;9.532;2022-12-18T07:21:59;21.80;36.00
56268;DHT22;42175;46.930;9.532;2022-12-18T07:24:25;21.80;36.20
56268;DHT22;42175;46.930;9.532;2022-12-18T07:26:50;21.80;37.00
56268;DHT22;42175;46.930;9.532;2022-12-18T07:29:16;21.90;36.40
56268;DHT22;42175;46.930;9.532;2022-12-18T07:31:42;21.90;36.50
56268;DHT22;42175;46.930;9.532;2022-12-18T07:34:14;21.90;36.50
56268;DHT22;42175;46.930;9.532;2022-12-18T07:36:40;21.90;36.70
56268;DHT22;42175;46.930;9.532;2022-12-18T07:39:06;21.90;36.60
56268;DHT22;42175;46.930;9.532;2022-12-18T07:41:32;21.90;36.60
56268;DHT22;42175;46.930;9.532;2022-12-18T07:43:58;21.90;36.60
56268;DHT22;42175;46.930;9.532;2022-12-18T07:46:23;21.90;36.70
56268;DHT22;42175;46.930;9.532;2022-12-18T07:48:49;21.90;36.60
56268;DHT22;42175;46.930;9.532;2022-12-18T07:51:15;21.90;36.60
56268;DHT22;42175;46.930;9.532;2022-12-18T07:53:41;21.90;36.50
56268;DHT22;42175;46.930;9.532;2022-12-18T07:56:09;21.90;36.30
56268;DHT22;42175;46.930;9.532;2022-12-18T07:58:36;21.90;36.20
56268;DHT22;42175;46.930;9.532;2022-12-18T08:01:07;21.90;36.20
56268;DHT22;42175;46.930;9.532;2022-12-18T08:03:33;22.00;36.20
56268;DHT22;42175;46.930;9.532;2022-12-18T08:06:04;22.00;36.10
56268;DHT22;42175;46.930;9.532;2022-12-18T08:08:31;22.00;36.30
56268;DHT22;42175;46.930;9.532;2022-12-18T08:10:57;22.00;36.70
56268;DHT22;42175;46.930;9.532;2022-12-18T08:13:23;22.00;36.80
56268;DHT22;42175;46.930;9.532;2022-12-18T08:16:00;22.00;37.10
56268;DHT22;42175;46.930;9.532;2022-12-18T08:18:26;22.00;37.10
56268;DHT22;42175;46.930;9.532;2022-12-18T08:20:52;22.10;37.30
56268;DHT22;42175;46.930;9.532;2022-12-18T08:23:19;22.10;37.70
56268;DHT22;42175;46.930;9.532;2022-12-18T08:25:44;22.10;37.60
56268;DHT22;42175;46.930;9.532;2022-12-18T08:28:10;22.10;37.90
56268;DHT22;42175;46.930;9.532;2022-12-18T08:30:36;22.10;38.00
56268;DHT22;42175;46.930;9.532;2022-12-18T08:33:02;22.10;38.50
56268;DHT22;42175;46.930;9.532;2022-12-18T08:35:28;22.20;38.10
56268;DHT22;42175;46.930;9.532;2022-12-18T08:37:54;22.10;38.30
56268;DHT22;42175;46.930;9.532;2022-12-18T08:40:19;22.20;38.30
56268;DHT22;42175;46.930;9.532;2022-12-18T08:42:45;22.20;38.30
56268;DHT22;42175;46.930;9.532;2022-12-18T08:45:29;22.20;38.50
56268;DHT22;42175;46.930;9.532;2022-12-18T08:47:55;22.30;38.30
56268;DHT22;42175;46.930;9.532;2022-12-18T08:50:21;22.30;38.40
56268;DHT22;42175;46.930;9.532;2022-12-18T08:52:47;22.30;38.40
56268;DHT22;42175;46.930;9.532;2022-12-18T08:55:12;22.30;38.40
56268;DHT22;42175;46.930;9.532;2022-12-18T08:57:38;22.30;38.40
56268;DHT22;42175;46.930;9.532;2022-12-18T09:00:04;22.30;38.60
56268;DHT22;42175;46.930;9.532;2022-12-18T09:02:31;22.30;38.60
56268;DHT22;42175;46.930;9.532;2022-12-18T09:04:56;22.30;38.60
56268;DHT22;42175;46.930;9.532;2022-12-18T09:07:22;22.30;38.10
56268;DHT22;42175;46.930;9.532;2022-12-18T09:09:47;22.40;37.30
56268;DHT22;42175;46.930;9.532;2022-12-18T09:12:13;22.30;37.50
56268;DHT22;42175;46.930;9.532;2022-12-18T09:14:39;22.40;37.60
56268;DHT22;42175;46.930;9.532;2022-12-18T09:17:04;22.40;37.70
56268;DHT22;42175;46.930;9.532;2022-12-18T09:19:30;22.40;38.30
56268;DHT22;42175;46.930;9.532;2022-12-18T09:21:56;22.40;38.30
56268;DHT22;42175;46.930;9.532;2022-12-18T09:24:21;22.40;37.70
56268;DHT22;42175;46.930;9.532;2022-12-18T09:26:47;22.50;37.70
56268;DHT22;42175;46.930;9.532;2022-12-18T09:29:14;22.40;37.60
56268;DHT22;42175;46.930;9.532;2022-12-18T09:31:40;22.40;37.60
56268;DHT22;42175;46.930;9.532;2022-12-18T09:34:06;22.40;37.70
56268;DHT22;42175;46.930;9.532;2022-12-18T09:36:32;22.40;37.80
56268;DHT22;42175;46.930;9.532;2022-12-18T09:38:58;22.50;38.00
56268;DHT22;42175;46.930;9.532;2022-12-18T09:49:22;22.70;38.00
56268;DHT22;42175;46.930;9.532;2022-12-18T09:52:15;22.70;38.30
56268;DHT22;42175;46.930;9.532;2022-12-18T09:54:45;22.60;38.40
56268;DHT22;42175;46.930;9.532;2022-12-18T09:57:20;22.70;38.50
56268;DHT22;42175;46.930;9.532;2022-12-18T10:00:03;22.70;38.60
56268;DHT22;42175;46.930;9.532;2022-12-18T10:02:30;22.70;38.60
56268;DHT22;42175;46.930;9.532;2022-12-18T10:05:05;22.80;38.70
56268;DHT22;42175;46.930;9.532;2022-12-18T10:15:24;22.80;38.70
56268;DHT22;42175;46.930;9.532;2022-12-18T10:20:54;22.90;38.90
56268;DHT22;42175;46.930;9.532;2022-12-18T10:23:30;22.90;38.80
56268;DHT22;42175;46.930;9.532;2022-12-18T10:28:30;22.90;38.90
56268;DHT22;42175;46.930;9.532;2022-12-18T10:30:57;22.90;38.90
56268;DHT22;42175;46.930;9.532;2022-12-18T10:33:27;22.90;38.90
56268;DHT22;42175;46.930;9.532;2022-12-18T10:35:53;23.00;39.00
56268;DHT22;42175;46.930;9.532;2022-12-18T10:41:00;23.00;39.00
56268;DHT22;42175;46.930;9.532;2022-12-18T10:43:35;22.90;32.40
56268;DHT22;42175;46.930;9.532;2022-12-18T10:54:15;21.20;30.90
56268;DHT22;42175;46.930;9.532;2022-12-18T10:56:42;21.60;33.10
56268;DHT22;42175;46.930;9.532;2022-12-18T10:59:11;21.80;34.40
56268;DHT22;42175;46.930;9.532;2022-12-18T11:04:30;22.10;35.50
56268;DHT22;42175;46.930;9.532;2022-12-18T11:06:57;22.30;35.80
56268;DHT22;42175;46.930;9.532;2022-12-18T11:09:31;22.30;36.00
56268;DHT22;42175;46.930;9.532;2022-12-18T11:12:02;22.40;36.40
56268;DHT22;42175;46.930;9.532;2022-12-18T11:14:33;22.40;36.70
56268;DHT22;42175;46.930;9.532;2022-12-18T11:17:00;22.50;37.00
56268;DHT22;42175;46.930;9.532;2022-12-18T11:21:58;21.70;29.50
56268;DHT22;42175;46.930;9.532;2022-12-18T11:24:32;21.30;29.30
56268;DHT22;42175;46.930;9.532;2022-12-18T11:27:13;21.00;29.50
56268;DHT22;42175;46.930;9.532;2022-12-18T11:29:41;20.70;30.40
56268;DHT22;42175;46.930;9.532;2022-12-18T11:32:24;20.50;29.50
56268;DHT22;42175;46.930;9.532;2022-12-18T11:37:53;20.20;29.20
56268;DHT22;42175;46.930;9.532;2022-12-18T11:40:59;20.00;29.50
56268;DHT22;42175;46.930;9.532;2022-12-18T11:43:31;19.90;29.30
56268;DHT22;42175;46.930;9.532;2022-12-18T11:46:06;19.90;30.30
56268;DHT22;42175;46.930;9.532;2022-12-18T11:48:34;20.30;31.90
56268;DHT22;42175;46.930;9.532;2022-12-18T11:51:05;20.50;32.40
56268;DHT22;42175;46.930;9.532;2022-12-18T11:53:35;20.70;32.10
56268;DHT22;42175;46.930;9.532;2022-12-18T12:01:56;21.00;33.70
56268;DHT22;42175;46.930;9.532;2022-12-18T12:10:08;21.20;34.50
56268;DHT22;42175;46.930;9.532;2022-12-18T12:15:47;21.30;34.90
56268;DHT22;42175;46.930;9.532;2022-12-18T12:18:41;21.30;35.10
56268;DHT22;42175;46.930;9.532;2022-12-18T12:35:39;21.50;36.10
56268;DHT22;42175;46.930;9.532;2022-12-18T12:38:21;21.50;36.10
56268;DHT22;42175;46.930;9.532;2022-12-18T12:41:02;21.50;36.40
56268;DHT22;42175;46.930;9.532;2022-12-18T12:43:42;21.50;36.40
56268;DHT22;42175;46.930;9.532;2022-12-18T12:46:13;21.60;36.70
56268;DHT22;42175;46.930;9.532;2022-12-18T12:53:42;21.60;37.20
56268;DHT22;42175;46.930;9.532;2022-12-18T12:56:11;21.70;37.50
56268;DHT22;42175;46.930;9.532;2022-12-18T12:58:55;21.70;37.70
56268;DHT22;42175;46.930;9.532;2022-12-18T13:10:19;21.80;39.20
56268;DHT22;42175;46.930;9.532;2022-12-18T13:15:40;21.80;38.60
56268;DHT22;42175;46.930;9.532;2022-12-18T13:25:54;21.90;39.80
56268;DHT22;42175;46.930;9.532;2022-12-18T13:31:07;21.90;39.90
56268;DHT22;42175;46.930;9.532;2022-12-18T13:33:44;22.00;39.80
56268;DHT22;42175;46.930;9.532;2022-12-18T13:38:47;22.00;39.70
56268;DHT22;42175;46.930;9.532;2022-12-18T13:41:33;22.00;39.20
56268;DHT22;42175;46.930;9.532;2022-12-18T13:44:13;22.10;39.30
56268;DHT22;42175;46.930;9.532;2022-12-18T13:46:48;21.50;31.50
56268;DHT22;42175;46.930;9.532;2022-12-18T13:49:20;21.10;34.10
56268;DHT22;42175;46.930;9.532;2022-12-18T13:51:49;21.30;35.10
56268;DHT22;42175;46.930;9.532;2022-12-18T13:56:50;21.50;36.10
56268;DHT22;42175;46.930;9.532;2022-12-18T13:59:19;21.60;37.20
56268;DHT22;42175;46.930;9.532;2022-12-18T14:04:25;21.70;38.40
56268;DHT22;42175;46.930;9.532;2022-12-18T14:06:56;21.70;38.60
56268;DHT22;42175;46.930;9.532;2022-12-18T14:09:28;21.80;38.90
56268;DHT22;42175;46.930;9.532;2022-12-18T14:11:56;21.80;39.20
56268;DHT22;42175;46.930;9.532;2022-12-18T14:14:43;21.80;38.80
56268;DHT22;42175;46.930;9.532;2022-12-18T14:17:13;21.80;40.00
56268;DHT22;42175;46.930;9.532;2022-12-18T14:19:47;21.80;40.50
56268;DHT22;42175;46.930;9.532;2022-12-18T14:22:21;21.90;40.50
56268;DHT22;42175;46.930;9.532;2022-12-18T14:25:20;21.90;40.70
56268;DHT22;42175;46.930;9.532;2022-12-18T14:27:51;21.90;41.30
56268;DHT22;42175;46.930;9.532;2022-12-18T14:33:06;22.00;41.80
56268;DHT22;42175;46.930;9.532;2022-12-18T14:35:39;22.00;41.90
56268;DHT22;42175;46.930;9.532;2022-12-18T14:41:02;22.00;42.10
56268;DHT22;42175;46.930;9.532;2022-12-18T14:43:31;22.00;41.80
56268;DHT22;42175;46.930;9.532;2022-12-18T14:45:57;22.10;41.80
56268;DHT22;42175;46.930;9.532;2022-12-18T14:48:38;22.10;41.70
56268;DHT22;42175;46.930;9.532;2022-12-18T14:51:05;22.10;42.20
56268;DHT22;42175;46.930;9.532;2022-12-18T14:53:38;22.10;41.90
56268;DHT22;42175;46.930;9.532;2022-12-18T15:01:37;22.10;40.50
56268;DHT22;42175;46.930;9.532;2022-12-18T15:04:19;22.10;40.50
56268;DHT22;42175;46.930;9.532;2022-12-18T15:06:48;22.10;40.50
56268;DHT22;42175;46.930;9.532;2022-12-18T15:09:26;22.10;40.30
56268;DHT22;42175;46.930;9.532;2022-12-18T15:11:59;22.10;40.40
56268;DHT22;42175;46.930;9.532;2022-12-18T15:14:39;22.10;40.30
56268;DHT22;42175;46.930;9.532;2022-12-18T15:17:18;22.10;40.30
56268;DHT22;42175;46.930;9.532;2022-12-18T15:19:46;22.10;40.20
56268;DHT22;42175;46.930;9.532;2022-12-18T15:22:33;22.10;40.20
56268;DHT22;42175;46.930;9.532;2022-12-18T15:25:00;22.10;40.10
56268;DHT22;42175;46.930;9.532;2022-12-18T15:27:34;22.10;40.10
56268;DHT22;42175;46.930;9.532;2022-12-18T15:32:36;22.20;40.10
56268;DHT22;42175;46.930;9.532;2022-12-18T15:37:38;22.20;40.00
56268;DHT22;42175;46.930;9.532;2022-12-18T15:40:05;22.20;40.10
56268;DHT22;42175;46.930;9.532;2022-12-18T15:42:30;22.20;40.00
56268;DHT22;42175;46.930;9.532;2022-12-18T15:45:15;22.20;40.60
56268;DHT22;42175;46.930;9.532;2022-12-18T15:47:40;22.20;40.00
56268;DHT22;42175;46.930;9.532;2022-12-18T15:50:10;22.20;40.00
56268;DHT22;42175;46.930;9.532;2022-12-18T15:52:43;22.20;40.00
56268;DHT22;42175;46.930;9.532;2022-12-18T15:55:14;22.20;40.10
56268;DHT22;42175;46.930;9.532;2022-12-18T15:57:58;22.20;40.00
56268;DHT22;42175;46.930;9.532;2022-12-18T16:00:24;22.20;40.00
56268;DHT22;42175;46.930;9.532;2022-12-18T16:02:51;22.20;39.90
56268;DHT22;42175;46.930;9.532;2022-12-18T16:05:18;22.20;39.90
56268;DHT22;42175;46.930;9.532;2022-12-18T16:07:44;22.20;39.90
56268;DHT22;42175;46.930;9.532;2022-12-18T16:10:10;22.20;39.90
56268;DHT22;42175;46.930;9.532;2022-12-18T16:12:36;22.20;39.90
56268;DHT22;42175;46.930;9.532;2022-12-18T16:15:04;22.20;39.90
56268;DHT22;42175;46.930;9.532;2022-12-18T16:17:31;22.20;39.90
56268;DHT22;42175;46.930;9.532;2022-12-18T16:19:56;22.20;39.80
56268;DHT22;42175;46.930;9.532;2022-12-18T16:22:24;22.20;40.10
56268;DHT22;42175;46.930;9.532;2022-12-18T16:24:52;22.30;39.90
56268;DHT22;42175;46.930;9.532;2022-12-18T16:27:18;22.20;39.90
56268;DHT22;42175;46.930;9.532;2022-12-18T16:29:44;22.20;39.80
56268;DHT22;42175;46.930;9.532;2022-12-18T16:32:19;22.20;39.80
56268;DHT22;42175;46.930;9.532;2022-12-18T16:34:46;22.20;39.90
56268;DHT22;42175;46.930;9.532;2022-12-18T16:37:13;22.20;39.80
56268;DHT22;42175;46.930;9.532;2022-12-18T16:39:39;22.20;39.90
56268;DHT22;42175;46.930;9.532;2022-12-18T16:42:17;22.20;40.00
56268;DHT22;42175;46.930;9.532;2022-12-18T16:44:45;22.30;39.90
56268;DHT22;42175;46.930;9.532;2022-12-18T16:47:11;22.30;39.90
56268;DHT22;42175;46.930;9.532;2022-12-18T16:49:37;22.20;39.70
56268;DHT22;42175;46.930;9.532;2022-12-18T16:52:04;22.30;39.80
56268;DHT22;42175;46.930;9.532;2022-12-18T16:54:30;22.30;40.20
56268;DHT22;42175;46.930;9.532;2022-12-18T16:56:56;22.30;40.00
56268;DHT22;42175;46.930;9.532;2022-12-18T16:59:22;22.30;39.90
56268;DHT22;42175;46.930;9.532;2022-12-18T17:01:48;22.30;39.90
56268;DHT22;42175;46.930;9.532;2022-12-18T17:04:14;22.30;39.90
56268;DHT22;42175;46.930;9.532;2022-12-18T17:06:41;22.30;39.90
56268;DHT22;42175;46.930;9.532;2022-12-18T17:09:13;22.30;40.10
56268;DHT22;42175;46.930;9.532;2022-12-18T17:11:40;22.30;40.00
56268;DHT22;42175;46.930;9.532;2022-12-18T17:14:08;22.30;39.90
56268;DHT22;42175;46.930;9.532;2022-12-18T17:16:34;22.30;40.00
56268;DHT22;42175;46.930;9.532;2022-12-18T17:19:00;22.30;40.00
56268;DHT22;42175;46.930;9.532;2022-12-18T17:21:26;22.30;40.40
56268;DHT22;42175;46.930;9.532;2022-12-18T17:23:52;22.30;40.00
56268;DHT22;42175;46.930;9.532;2022-12-18T17:26:18;22.40;40.10
56268;DHT22;42175;46.930;9.532;2022-12-18T17:28:43;22.40;40.30
56268;DHT22;42175;46.930;9.532;2022-12-18T17:31:16;22.40;40.50
56268;DHT22;42175;46.930;9.532;2022-12-18T17:33:42;22.40;40.70
56268;DHT22;42175;46.930;9.532;2022-12-18T17:36:09;22.40;41.00
56268;DHT22;42175;46.930;9.532;2022-12-18T17:38:35;22.40;41.10
56268;DHT22;42175;46.930;9.532;2022-12-18T17:41:03;22.40;41.40
56268;DHT22;42175;46.930;9.532;2022-12-18T17:43:29;22.40;41.60
56268;DHT22;42175;46.930;9.532;2022-12-18T17:45:55;22.40;41.70
56268;DHT22;42175;46.930;9.532;2022-12-18T17:48:21;22.40;42.00
56268;DHT22;42175;46.930;9.532;2022-12-18T17:50:46;22.50;42.00
56268;DHT22;42175;46.930;9.532;2022-12-18T17:53:12;22.50;42.10
56268;DHT22;42175;46.930;9.532;2022-12-18T17:55:38;22.50;42.10
56268;DHT22;42175;46.930;9.532;2022-12-18T17:58:04;22.50;42.20
56268;DHT22;42175;46.930;9.532;2022-12-18T18:00:29;22.50;42.20
56268;DHT22;42175;46.930;9.532;2022-12-18T18:02:55;22.50;42.40
56268;DHT22;42175;46.930;9.532;2022-12-18T18:05:21;22.50;42.20